Time;durP1;ratioP1;P1;durP2;ratioP2;P2;SDS_P1;SDS_P2;PMS_P1;PMS_P2;Temp;Humidity;BMP_temperature;BMP_pressure;BME280_temperature;BME280_humidity;BME280_pressure;Samples;Min_cycle;Max_cycle;Signal;HPM_P1;HPM_P2
2023/08/18 00:01:58;;;;;;;6.00;5.10;;;;;;;21.19;74.31;100364.67;105838;1268;72684;-82
2023/08/18 00:04:25;;;;;;;8.40;5.70;;;;;;;21.18;74.69;100358.98;105806;1255;60533;-83
2023/08/18 00:06:53;;;;;;;7.80;5.90;;;;;;;21.17;74.76;100362.17;105833;1254;60563;-83
2023/08/18 00:09:20;;;;;;;6.60;5.00;;;;;;;21.20;74.57;100358.12;105944;1258;73164;-82
2023/08/18 00:11:48;;;;;;;8.60;5.40;;;;;;;21.24;74.01;100355.52;105997;1258;70492;-83
2023/08/18 00:14:15;;;;;;;8.90;5.50;;;;;;;21.21;74.26;100355.66;106142;1260;72770;-83
2023/08/18 00:16:42;;;;;;;7.30;6.20;;;;;;;21.18;74.91;100353.90;107250;1254;59047;-84
2023/08/18 00:19:10;;;;;;;10.90;5.80;;;;;;;21.14;75.04;100350.36;108729;1255;59256;-84
2023/08/18 00:21:37;;;;;;;7.90;6.10;;;;;;;21.12;74.70;100347.60;108824;1254;71615;-82
2023/08/18 00:24:05;;;;;;;7.40;5.90;;;;;;;21.12;74.95;100351.27;108029;1255;69014;-79
2023/08/18 00:26:32;;;;;;;7.60;5.40;;;;;;;21.16;74.92;100350.59;106447;1255;71400;-80
2023/08/18 00:29:00;;;;;;;6.40;5.80;;;;;;;21.18;75.11;100347.95;107362;1257;60524;-81
2023/08/18 00:31:27;;;;;;;12.60;7.00;;;;;;;21.14;74.85;100348.20;107650;1254;60445;-83
2023/08/18 00:33:55;;;;;;;9.60;6.40;;;;;;;21.11;75.05;100347.36;107864;1259;73797;-80
2023/08/18 00:36:22;;;;;;;7.20;6.20;;;;;;;21.10;75.00;100341.30;108398;1254;69071;-81
2023/08/18 00:38:49;;;;;;;9.20;6.80;;;;;;;21.07;74.93;100338.67;108468;1254;72053;-81
2023/08/18 00:41:17;;;;;;;9.80;5.70;;;;;;;21.04;75.09;100340.41;106705;1254;60394;-81
2023/08/18 00:43:45;;;;;;;9.90;5.60;;;;;;;21.05;75.11;100338.94;106394;1259;60489;-82
2023/08/18 00:46:12;;;;;;;9.90;5.40;;;;;;;21.07;75.85;100338.63;106377;1255;73265;-81
2023/08/18 00:48:40;;;;;;;11.00;6.60;;;;;;;21.04;75.85;100334.92;106269;1255;70334;-82
2023/08/18 00:51:07;;;;;;;9.10;6.90;;;;;;;20.99;76.08;100335.96;106424;1257;72686;-83
2023/08/18 00:53:34;;;;;;;9.30;7.20;;;;;;;20.93;76.36;100334.48;107265;1259;60435;-83
2023/08/18 00:56:05;;;;;;;9.10;7.00;;;;;;;20.89;76.08;100337.80;107565;1254;60363;-82
2023/08/18 00:58:33;;;;;;;8.90;6.50;;;;;;;20.88;76.39;100342.89;107020;1259;73894;-81
2023/08/18 01:01:01;;;;;;;9.90;6.60;;;;;;;20.92;76.74;100338.93;107948;1257;68692;-81
2023/08/18 01:03:30;;;;;;;10.10;6.60;;;;;;;20.96;76.42;100342.77;107896;1259;71222;-82
2023/08/18 01:05:58;;;;;;;10.50;6.70;;;;;;;20.94;76.64;100344.07;106194;1259;60476;-82
2023/08/18 01:08:27;;;;;;;11.30;6.80;;;;;;;20.90;76.81;100343.28;105931;1259;60344;-81
2023/08/18 01:11:02;;;;;;;9.60;7.90;;;;;;;20.82;77.12;100344.52;105571;1262;73815;-80
2023/08/18 01:13:39;;;;;;;10.30;6.90;;;;;;;20.73;77.04;100342.38;105659;1257;69934;-82
2023/08/18 01:16:10;;;;;;;8.50;6.60;;;;;;;20.72;77.12;100343.19;105715;1259;71180;-82
2023/08/18 01:18:38;;;;;;;11.90;6.70;;;;;;;20.69;77.07;100339.17;106004;1258;60928;-84
2023/08/18 01:21:05;;;;;;;8.70;7.10;;;;;;;20.64;77.28;100341.26;105769;1261;62204;-83
2023/08/18 01:23:39;;;;;;;12.20;7.70;;;;;;;20.58;77.73;100341.06;105816;1262;74051;-84
2023/08/18 01:26:07;;;;;;;10.40;7.20;;;;;;;20.52;78.31;100346.73;105937;1254;70827;-84
2023/08/18 01:28:34;;;;;;;12.20;7.10;;;;;;;20.47;78.32;100346.62;106073;1257;72798;-83
2023/08/18 01:31:14;;;;;;;10.50;6.80;;;;;;;20.49;78.13;100342.41;106207;1254;60466;-84
2023/08/18 01:34:02;;;;;;;12.30;6.50;;;;;;;20.49;78.59;100336.98;107888;1254;58970;-84
2023/08/18 01:36:33;;;;;;;12.10;7.50;;;;;;;20.46;78.63;100337.87;108727;1254;72196;-83
2023/08/18 01:39:01;;;;;;;13.00;7.10;;;;;;;20.41;78.91;100344.09;108533;1258;69036;-84
2023/08/18 01:41:29;;;;;;;15.90;7.70;;;;;;;20.37;79.06;100348.23;106961;1254;71404;-84
2023/08/18 01:44:00;;;;;;;11.30;6.80;;;;;;;20.34;79.50;100349.45;108404;1254;60400;-86
2023/08/18 01:46:32;;;;;;;12.90;7.00;;;;;;;20.36;79.70;100347.65;108621;1259;58809;-83
2023/08/18 01:49:00;;;;;;;13.20;7.10;;;;;;;20.40;79.42;100350.20;106227;1260;72841;-84
2023/08/18 01:51:27;;;;;;;8.70;7.60;;;;;;;20.38;79.46;100349.55;105935;1260;68840;-84
2023/08/18 01:53:54;;;;;;;12.00;7.10;;;;;;;20.37;79.48;100352.80;106029;1254;71258;-84
2023/08/18 01:56:22;;;;;;;12.20;8.00;;;;;;;20.35;79.99;100349.98;106086;1254;60543;-83
2023/08/18 01:58:49;;;;;;;10.80;6.80;;;;;;;20.31;80.25;100349.05;105643;1254;60532;-85
2023/08/18 02:01:17;;;;;;;13.40;7.80;;;;;;;20.32;79.99;100353.40;105694;1260;73870;-85
2023/08/18 02:03:44;;;;;;;8.20;7.30;;;;;;;20.33;80.35;100354.98;105868;1259;68781;-84
2023/08/18 02:06:12;;;;;;;10.70;6.90;;;;;;;20.29;80.31;100355.21;105857;1257;73180;-83
2023/08/18 02:08:40;;;;;;;8.20;6.60;;;;;;;20.23;80.23;100356.33;105783;1257;60520;-84
2023/08/18 02:11:07;;;;;;;9.30;7.40;;;;;;;20.19;80.39;100354.48;105608;1260;60404;-85
2023/08/18 02:13:34;;;;;;;8.40;7.00;;;;;;;20.19;80.33;100358.31;105635;1254;73952;-84
2023/08/18 02:16:02;;;;;;;9.30;6.60;;;;;;;20.23;80.13;100359.14;105942;1257;69959;-83
2023/08/18 02:18:32;;;;;;;9.70;6.90;;;;;;;20.21;80.33;100359.40;105831;1254;72756;-82
2023/08/18 02:21:02;;;;;;;9.10;7.20;;;;;;;20.16;80.89;100362.13;106211;1260;60544;-83
2023/08/18 02:23:29;;;;;;;7.80;6.60;;;;;;;20.12;81.22;100365.02;105867;1255;60810;-83
2023/08/18 02:26:01;;;;;;;9.60;7.20;;;;;;;20.09;81.32;100367.85;107566;1254;72647;-80
2023/08/18 02:28:29;;;;;;;10.00;6.60;;;;;;;20.06;81.32;100368.27;108084;1257;68759;-83
2023/08/18 02:31:01;;;;;;;9.70;6.50;;;;;;;20.11;81.04;100371.16;105984;1260;72789;-83
2023/08/18 02:33:28;;;;;;;8.10;6.70;;;;;;;20.16;81.04;100368.56;106014;1259;61101;-84
2023/08/18 02:35:56;;;;;;;9.20;6.70;;;;;;;20.16;81.14;100376.15;105774;1260;60524;-82
2023/08/18 02:38:23;;;;;;;10.40;7.00;;;;;;;20.13;81.33;100374.59;105775;1258;72623;-81
2023/08/18 02:40:52;;;;;;;11.70;7.30;;;;;;;20.06;81.56;100371.81;105912;1254;70311;-82
2023/08/18 02:43:21;;;;;;;9.30;7.30;;;;;;;20.01;81.53;100375.77;105887;1256;70728;-83
2023/08/18 02:46:02;;;;;;;8.00;6.80;;;;;;;20.02;81.57;100375.56;106241;1256;61652;-82
2023/08/18 02:48:30;;;;;;;8.80;7.40;;;;;;;20.05;81.71;100374.90;106828;1254;60432;-83
2023/08/18 02:51:10;;;;;;;8.30;7.40;;;;;;;19.98;82.02;100375.13;108875;1253;73819;-83
2023/08/18 02:53:37;;;;;;;11.40;8.30;;;;;;;19.92;82.39;100375.40;109019;1253;71366;-84
2023/08/18 02:56:05;;;;;;;11.70;7.50;;;;;;;19.87;82.59;100379.31;109221;1253;71427;-83
2023/08/18 02:58:33;;;;;;;8.70;7.50;;;;;;;19.90;82.47;100382.27;107946;1254;60727;-83
2023/08/18 03:01:07;;;;;;;9.20;7.30;;;;;;;19.95;82.75;100381.73;107150;1254;217796;-86
2023/08/18 03:04:54;;;;;;;12.50;8.20;;;;;;;19.93;82.96;100382.70;105670;1291;599338;-83
2023/08/18 03:07:21;;;;;;;12.90;9.00;;;;;;;19.89;82.97;100383.63;108232;1271;58772;-85
2023/08/18 03:09:50;;;;;;;10.60;9.50;;;;;;;19.88;83.00;100385.05;108201;1268;61049;-83
2023/08/18 03:12:18;;;;;;;9.70;8.70;;;;;;;19.93;83.19;100385.94;108141;1266;70736;-84
2023/08/18 03:14:45;;;;;;;15.30;9.40;;;;;;;20.00;83.25;100385.81;108490;1271;68726;-84
2023/08/18 03:17:12;;;;;;;10.70;9.60;;;;;;;20.00;83.26;100388.13;108329;1266;71499;-83
2023/08/18 03:19:40;;;;;;;10.70;9.60;;;;;;;20.00;83.70;100391.12;107230;1264;227602;-83
2023/08/18 03:22:07;;;;;;;11.90;9.50;;;;;;;20.00;83.64;100392.14;105358;1269;59971;-84
2023/08/18 03:24:34;;;;;;;11.00;9.30;;;;;;;20.03;83.30;100389.33;105259;1269;71034;-83
2023/08/18 03:27:02;;;;;;;11.50;8.90;;;;;;;20.05;83.38;100392.98;105610;1260;67735;-83
2023/08/18 03:29:30;;;;;;;10.30;8.90;;;;;;;20.02;83.78;100392.84;105843;1260;71058;-83
2023/08/18 03:31:57;;;;;;;10.70;9.40;;;;;;;19.98;83.67;100394.38;105675;1263;60233;-83
2023/08/18 03:34:25;;;;;;;13.10;9.10;;;;;;;19.95;84.19;100395.93;105533;1257;59762;-83
2023/08/18 03:36:52;;;;;;;11.90;9.00;;;;;;;19.99;84.37;100398.36;105377;1260;72614;-84
2023/08/18 03:39:21;;;;;;;10.60;9.50;;;;;;;20.03;83.98;100397.64;105769;1260;69567;-83
2023/08/18 03:41:49;;;;;;;11.90;10.20;;;;;;;19.99;83.76;100397.56;105768;1261;71364;-83
2023/08/18 03:44:16;;;;;;;12.30;9.40;;;;;;;19.96;84.09;100398.91;105805;1263;59728;-83
2023/08/18 03:46:44;;;;;;;12.10;9.50;;;;;;;19.96;84.28;100398.36;105727;1261;59660;-84
2023/08/18 03:49:11;;;;;;;10.50;8.30;;;;;;;20.00;84.42;100400.13;105575;1261;70799;-81
2023/08/18 03:51:40;;;;;;;10.00;7.80;;;;;;;20.14;84.14;100398.98;108105;1257;68725;-81
2023/08/18 03:54:07;;;;;;;14.20;9.10;;;;;;;20.29;83.66;100405.52;106523;1260;71372;-79
2023/08/18 03:56:35;;;;;;;12.10;8.90;;;;;;;20.35;83.67;100404.40;106278;1255;59164;-85
2023/08/18 03:59:03;;;;;;;11.30;8.90;;;;;;;20.37;83.27;100407.98;105833;1261;59580;-81
2023/08/18 04:01:31;;;;;;;9.70;7.00;;;;;;;20.43;83.24;100408.26;106110;1260;73139;-78
2023/08/18 04:03:58;;;;;;;7.90;7.10;;;;;;;20.58;82.78;100412.37;106409;1260;69993;-80
2023/08/18 04:06:26;;;;;;;8.70;7.20;;;;;;;20.75;82.67;100410.73;107966;1257;72660;-79
2023/08/18 04:09:06;;;;;;;8.90;7.60;;;;;;;20.89;82.37;100413.66;107994;1260;59126;-77
2023/08/18 04:11:35;;;;;;;7.60;6.90;;;;;;;20.98;81.50;100408.20;107211;1260;58590;-79
2023/08/18 04:14:03;;;;;;;8.90;7.70;;;;;;;21.09;81.24;100409.30;105302;1265;73152;-77
2023/08/18 04:16:33;;;;;;;9.70;7.30;;;;;;;21.21;80.87;100413.02;105658;1258;70017;-79
2023/08/18 04:19:03;;;;;;;8.80;6.90;;;;;;;21.37;79.94;100412.09;105810;1257;70735;-80
2023/08/18 04:21:32;;;;;;;13.00;8.10;;;;;;;21.50;78.78;100415.60;105608;1260;59752;-79
2023/08/18 04:24:00;;;;;;;8.30;7.00;;;;;;;21.57;77.92;100418.68;105415;1258;59701;-76
2023/08/18 04:26:28;;;;;;;10.90;7.20;;;;;;;21.63;77.31;100413.88;105596;1262;73027;-75
2023/08/18 04:28:55;;;;;;;10.10;7.90;;;;;;;21.75;76.76;100410.22;105137;1258;70454;-79
2023/08/18 04:31:23;;;;;;;11.80;7.80;;;;;;;21.93;76.60;100412.00;105596;1258;72576;-80
2023/08/18 04:33:57;;;;;;;9.20;8.20;;;;;;;22.12;76.21;100415.60;105910;1260;60722;-77
2023/08/18 04:36:25;;;;;;;14.10;9.50;;;;;;;22.28;75.26;100410.21;105804;1260;60481;-78
2023/08/18 04:38:54;;;;;;;10.40;9.20;;;;;;;22.38;74.74;100414.45;105794;1254;73119;-78
2023/08/18 04:41:25;;;;;;;10.20;9.00;;;;;;;22.42;74.48;100410.65;105643;1257;70690;-79
2023/08/18 04:43:53;;;;;;;12.50;9.20;;;;;;;22.43;74.27;100408.25;105455;1261;72694;-79
2023/08/18 04:46:24;;;;;;;14.50;9.20;;;;;;;22.52;74.04;100408.36;105670;1260;60045;-80
2023/08/18 04:48:54;;;;;;;11.30;9.30;;;;;;;22.65;73.54;100405.98;105814;1259;59548;-82
2023/08/18 04:51:21;;;;;;;11.70;8.50;;;;;;;22.76;72.99;100403.96;105728;1256;73050;-80
2023/08/18 04:53:49;;;;;;;14.10;8.00;;;;;;;22.85;72.72;100401.67;105554;1257;70317;-80
2023/08/18 04:56:17;;;;;;;11.20;7.20;;;;;;;22.96;72.22;100407.81;105213;1257;71060;-79
2023/08/18 04:58:45;;;;;;;8.40;7.30;;;;;;;23.04;72.00;100405.27;105632;1258;60096;-78
2023/08/18 05:01:12;;;;;;;10.80;7.60;;;;;;;23.07;72.03;100402.67;105752;1256;59966;-76
2023/08/18 05:03:40;;;;;;;7.80;6.90;;;;;;;23.04;71.74;100405.30;105509;1259;72815;-77
2023/08/18 05:06:08;;;;;;;9.20;7.40;;;;;;;23.01;71.58;100409.17;105558;1254;68698;-76
2023/08/18 05:08:37;;;;;;;8.40;7.50;;;;;;;23.00;71.71;100407.25;105642;1259;74911;-78
2023/08/18 05:11:08;;;;;;;11.80;8.00;;;;;;;23.01;71.72;100409.21;105542;1260;59588;-79
2023/08/18 05:13:40;;;;;;;10.60;7.30;;;;;;;23.02;71.63;100411.53;105796;1255;60251;-75
2023/08/18 05:16:07;;;;;;;10.10;7.90;;;;;;;23.11;71.13;100408.09;105623;1259;70485;-78
2023/08/18 05:18:35;;;;;;;10.10;7.10;;;;;;;23.18;70.93;100401.64;105855;1260;70515;-77
2023/08/18 05:21:03;;;;;;;9.90;7.70;;;;;;;23.22;70.90;100400.04;106011;1255;71309;-77
2023/08/18 05:23:30;;;;;;;14.50;8.50;;;;;;;23.26;70.86;100402.25;107636;1255;60613;-77
2023/08/18 05:25:59;;;;;;;10.60;7.50;;;;;;;23.31;70.87;100406.38;107699;1254;59554;-75
2023/08/18 05:28:32;;;;;;;9.00;8.10;;;;;;;23.37;70.65;100404.18;107034;1259;72009;-78
2023/08/18 05:31:00;;;;;;;12.30;8.60;;;;;;;23.42;70.39;100403.76;105896;1257;68786;-77
2023/08/18 05:33:28;;;;;;;9.60;7.50;;;;;;;23.48;70.44;100407.41;105990;1254;73798;-77
2023/08/18 05:35:59;;;;;;;10.10;8.10;;;;;;;23.53;69.81;100405.25;105857;1254;59674;-78
2023/08/18 05:38:27;;;;;;;8.20;7.40;;;;;;;23.60;69.59;100410.05;105323;1254;60032;-75
2023/08/18 05:41:03;;;;;;;11.10;7.40;;;;;;;23.66;69.14;100405.86;105684;1260;73380;-78
2023/08/18 05:43:35;;;;;;;9.10;7.40;;;;;;;23.71;68.70;100407.33;105544;1260;70418;-75
2023/08/18 05:46:03;;;;;;;8.90;7.10;;;;;;;23.76;68.60;100408.24;105657;1254;71916;-77
2023/08/18 05:48:32;;;;;;;10.00;6.80;;;;;;;23.81;68.09;100407.51;105648;1254;59746;-77
2023/08/18 05:51:00;;;;;;;11.10;7.10;;;;;;;23.87;67.96;100403.34;105793;1259;60178;-77
2023/08/18 05:53:28;;;;;;;8.40;6.10;;;;;;;23.93;67.64;100401.23;105547;1261;71845;-75
2023/08/18 05:55:55;;;;;;;8.50;6.60;;;;;;;24.00;67.09;100401.04;105812;1257;70314;-77
2023/08/18 05:58:22;;;;;;;10.20;6.60;;;;;;;24.05;66.75;100401.46;106050;1251;72667;-77
2023/08/18 06:00:50;;;;;;;8.60;5.60;;;;;;;24.10;66.50;100404.66;106030;1254;59704;-76
2023/08/18 06:03:19;;;;;;;14.40;6.50;;;;;;;24.14;66.15;100404.52;106021;1258;59712;-77
2023/08/18 06:05:47;;;;;;;7.10;5.70;;;;;;;24.21;65.91;100407.96;106074;1254;71397;-77
2023/08/18 06:08:15;;;;;;;12.50;6.30;;;;;;;24.28;65.51;100406.40;105860;1251;69089;-76
2023/08/18 06:10:43;;;;;;;12.30;5.90;;;;;;;24.35;65.21;100409.36;105971;1255;71432;-76
2023/08/18 06:13:10;;;;;;;10.30;5.50;;;;;;;24.43;65.21;100411.41;105843;1255;59739;-78
2023/08/18 06:15:38;;;;;;;8.60;5.60;;;;;;;24.52;65.18;100411.86;105910;1251;59794;-76
2023/08/18 06:18:05;;;;;;;9.10;6.30;;;;;;;24.61;64.88;100412.42;105967;1251;73055;-77
2023/08/18 06:20:33;;;;;;;10.10;6.30;;;;;;;24.68;64.53;100409.87;105972;1251;69963;-77
2023/08/18 06:23:00;;;;;;;8.50;6.50;;;;;;;24.73;64.11;100410.83;106004;1251;72623;-77
2023/08/18 06:25:27;;;;;;;9.10;6.40;;;;;;;24.75;63.69;100413.96;105862;1254;60025;-77
2023/08/18 06:27:55;;;;;;;7.80;6.60;;;;;;;24.77;63.56;100418.95;105866;1257;59380;-77
2023/08/18 06:30:23;;;;;;;18.70;6.50;;;;;;;24.81;63.24;100418.66;106013;1251;73038;-77
2023/08/18 06:32:50;;;;;;;8.60;6.50;;;;;;;24.84;63.22;100418.52;106026;1251;69298;-77
2023/08/18 06:35:18;;;;;;;7.70;5.90;;;;;;;24.89;62.86;100416.31;106205;1257;72307;-77
2023/08/18 06:37:45;;;;;;;9.50;6.50;;;;;;;24.99;62.90;100416.30;106337;1257;59618;-77
2023/08/18 06:40:13;;;;;;;8.00;6.10;;;;;;;25.11;62.71;100416.83;106714;1254;60026;-78
2023/08/18 06:42:41;;;;;;;9.30;5.70;;;;;;;25.25;62.54;100419.13;107277;1253;71873;-78
2023/08/18 06:45:08;;;;;;;8.40;6.30;;;;;;;25.41;62.19;100419.22;107313;1254;68702;-77
2023/08/18 06:47:36;;;;;;;8.50;6.70;;;;;;;25.57;61.91;100416.88;106340;1254;72635;-78
2023/08/18 06:50:05;;;;;;;8.30;5.60;;;;;;;25.71;61.73;100420.71;107845;1254;60115;-77
2023/08/18 06:52:33;;;;;;;6.70;6.00;;;;;;;25.85;61.16;100419.70;106595;1255;59110;-76
2023/08/18 06:55:03;;;;;;;7.60;5.80;;;;;;;25.98;60.72;100419.81;105838;1254;72427;-77
2023/08/18 06:57:32;;;;;;;9.40;6.00;;;;;;;26.13;60.22;100420.71;105837;1260;68748;-79
2023/08/18 06:59:59;;;;;;;10.30;6.10;;;;;;;26.26;60.06;100422.70;105859;1254;71252;-78
2023/08/18 07:02:27;;;;;;;10.60;5.90;;;;;;;26.39;60.00;100423.27;105884;1254;59733;-79
2023/08/18 07:04:56;;;;;;;9.10;6.70;;;;;;;26.51;59.34;100422.42;105827;1259;59560;-78
2023/08/18 07:07:23;;;;;;;6.70;6.00;;;;;;;26.61;58.91;100425.16;105842;1254;71542;-77
2023/08/18 07:09:50;;;;;;;12.10;6.00;;;;;;;26.70;58.93;100425.09;105942;1257;69945;-77
2023/08/18 07:12:18;;;;;;;7.90;6.70;;;;;;;26.78;58.38;100425.26;105972;1254;72734;-79
2023/08/18 07:14:45;;;;;;;7.10;6.20;;;;;;;26.88;58.34;100424.54;105912;1255;60376;-77
2023/08/18 07:17:13;;;;;;;7.00;6.00;;;;;;;26.98;58.04;100428.25;106236;1254;60614;-78
2023/08/18 07:19:40;;;;;;;6.50;5.70;;;;;;;27.01;57.66;100426.48;106074;1259;73774;-80
2023/08/18 07:22:08;;;;;;;6.90;5.70;;;;;;;27.03;57.30;100429.45;107035;1257;69178;-78
2023/08/18 07:24:35;;;;;;;6.10;5.50;;;;;;;27.10;57.03;100428.52;108493;1253;71501;-77
2023/08/18 07:27:03;;;;;;;7.30;5.70;;;;;;;27.18;56.97;100429.13;106995;1257;60546;-77
2023/08/18 07:29:33;;;;;;;8.40;5.50;;;;;;;27.28;57.04;100430.58;105988;1251;60314;-78
2023/08/18 07:32:01;;;;;;;7.10;5.50;;;;;;;27.40;56.75;100433.66;106023;1254;71809;-76
2023/08/18 07:34:28;;;;;;;7.10;5.80;;;;;;;27.46;56.41;100432.55;105996;1254;70007;-79
2023/08/18 07:36:56;;;;;;;6.70;5.50;;;;;;;27.50;56.30;100430.66;105959;1254;72419;-78
2023/08/18 07:39:24;;;;;;;7.60;5.70;;;;;;;27.54;56.21;100428.51;105854;1254;60763;-79
2023/08/18 07:41:52;;;;;;;7.40;5.60;;;;;;;27.55;56.36;100428.62;105952;1257;60525;-78
2023/08/18 07:44:19;;;;;;;8.90;5.90;;;;;;;27.62;56.32;100426.70;106053;1257;71600;-78
2023/08/18 07:46:47;;;;;;;7.30;6.00;;;;;;;27.72;56.06;100426.30;105993;1252;69580;-77
2023/08/18 07:49:14;;;;;;;6.00;5.40;;;;;;;27.79;55.58;100425.86;105880;1259;71444;-77
2023/08/18 07:51:42;;;;;;;8.40;5.40;;;;;;;27.83;55.70;100427.29;105974;1257;60437;-78
2023/08/18 07:54:10;;;;;;;6.80;6.00;;;;;;;27.95;55.61;100428.41;106118;1253;60365;-79
2023/08/18 07:56:37;;;;;;;7.30;5.40;;;;;;;28.07;55.51;100431.66;107020;1254;72602;-78
2023/08/18 07:59:04;;;;;;;6.50;5.40;;;;;;;28.18;55.29;100430.13;106882;1257;69132;-78
2023/08/18 08:01:32;;;;;;;9.20;5.90;;;;;;;28.28;55.24;100424.36;106618;1253;71433;-78
2023/08/18 08:03:59;;;;;;;9.30;5.40;;;;;;;28.40;54.91;100423.83;106160;1253;60867;-77
2023/08/18 08:06:27;;;;;;;8.80;5.60;;;;;;;28.49;54.49;100424.84;106286;1258;59107;-75
2023/08/18 08:08:55;;;;;;;6.10;5.00;;;;;;;28.52;54.28;100424.05;105972;1257;74289;-77
2023/08/18 08:11:22;;;;;;;7.40;5.70;;;;;;;28.52;54.32;100422.57;105776;1251;69997;-78
2023/08/18 08:13:49;;;;;;;6.70;5.20;;;;;;;28.52;54.11;100419.95;105995;1253;72650;-75
2023/08/18 08:16:17;;;;;;;7.90;5.70;;;;;;;28.52;54.33;100417.33;105825;1253;60485;-77
2023/08/18 08:18:44;;;;;;;9.00;6.10;;;;;;;28.55;54.42;100417.33;105980;1254;60455;-74
2023/08/18 08:21:12;;;;;;;5.10;4.70;;;;;;;28.57;54.21;100412.95;105869;1258;72764;-79
2023/08/18 08:23:39;;;;;;;5.20;4.80;;;;;;;28.57;53.85;100414.71;105821;1254;70127;-76
2023/08/18 08:26:07;;;;;;;5.70;4.80;;;;;;;28.57;53.72;100415.81;105881;1252;71374;-79
2023/08/18 08:28:35;;;;;;;5.90;4.30;;;;;;;28.61;53.60;100410.67;106012;1254;60455;-77
2023/08/18 08:31:02;;;;;;;6.40;4.20;;;;;;;28.66;52.52;100408.92;106296;1256;60503;-78
2023/08/18 08:33:33;;;;;;;5.50;4.10;;;;;;;28.67;52.52;100406.95;106008;1253;72574;-78
2023/08/18 08:36:00;;;;;;;5.00;4.10;;;;;;;28.72;52.12;100408.21;106112;1254;72510;-77
2023/08/18 08:38:28;;;;;;;5.50;3.90;;;;;;;28.78;52.01;100407.08;105847;1259;73140;-79
2023/08/18 08:40:56;;;;;;;4.20;3.80;;;;;;;28.88;51.78;100408.49;106098;1251;61388;-81
2023/08/18 08:43:24;;;;;;;5.00;4.20;;;;;;;29.02;51.30;100403.23;106859;1254;60370;-80
2023/08/18 08:45:52;;;;;;;5.10;3.90;;;;;;;29.16;50.79;100400.50;106149;1251;72601;-81
2023/08/18 08:48:20;;;;;;;4.70;4.10;;;;;;;29.35;50.44;100404.30;106064;1253;70293;-79
2023/08/18 08:50:50;;;;;;;8.00;4.40;;;;;;;29.50;49.75;100402.67;106005;1260;71365;-78
2023/08/18 08:53:19;;;;;;;4.30;3.30;;;;;;;29.55;49.47;100402.55;105940;1254;60472;-79
2023/08/18 08:55:47;;;;;;;8.30;4.10;;;;;;;29.54;48.77;100399.34;105950;1253;60590;-78
2023/08/18 08:58:14;;;;;;;4.90;3.50;;;;;;;29.49;49.12;100398.35;105860;1257;72567;-79
2023/08/18 09:00:42;;;;;;;4.80;4.00;;;;;;;29.53;49.36;100395.28;105893;1258;68827;-78
2023/08/18 09:03:09;;;;;;;3.70;3.40;;;;;;;29.66;49.04;100396.27;105962;1255;73585;-78
2023/08/18 09:05:37;;;;;;;3.80;3.40;;;;;;;29.79;48.25;100392.09;106029;1251;60568;-78
2023/08/18 09:08:05;;;;;;;4.40;3.30;;;;;;;29.92;48.48;100391.15;106518;1257;60363;-80
2023/08/18 09:10:33;;;;;;;4.90;3.20;;;;;;;30.19;48.43;100388.70;107367;1254;72437;-79
2023/08/18 09:13:01;;;;;;;7.40;3.60;;;;;;;30.56;47.86;100386.23;106849;1257;68729;-79
2023/08/18 09:15:28;;;;;;;8.00;3.80;;;;;;;30.98;46.95;100389.30;107009;1253;72695;-79
2023/08/18 09:17:56;;;;;;;5.80;4.20;;;;;;;31.44;46.33;100390.65;107675;1253;60366;-79
2023/08/18 09:20:24;;;;;;;4.80;3.40;;;;;;;31.97;45.27;100384.02;106562;1256;60384;-80
2023/08/18 09:22:56;;;;;;;5.10;3.40;;;;;;;32.56;44.38;100382.02;106166;1253;73282;-78
2023/08/18 09:25:23;;;;;;;3.80;3.40;;;;;;;33.05;43.57;100381.80;106457;1254;69025;-78
2023/08/18 09:27:55;;;;;;;5.20;3.40;;;;;;;33.32;43.04;100381.44;105987;1257;71375;-79
2023/08/18 09:30:24;;;;;;;3.80;3.40;;;;;;;33.34;42.20;100381.20;105973;1253;60594;-80
2023/08/18 09:32:52;;;;;;;4.10;3.40;;;;;;;33.42;41.96;100380.14;106090;1256;60417;-76
2023/08/18 09:35:19;;;;;;;5.60;3.70;;;;;;;33.70;41.79;100381.78;105994;1251;74361;-80
2023/08/18 09:37:57;;;;;;;4.50;3.10;;;;;;;34.21;40.88;100372.04;106018;1253;70574;-79
2023/08/18 09:40:25;;;;;;;5.30;3.60;;;;;;;34.84;40.26;100372.07;106123;1253;72707;-83
2023/08/18 09:42:53;;;;;;;6.70;3.20;;;;;;;35.36;38.46;100376.71;105818;1253;60418;-79
2023/08/18 09:45:22;;;;;;;3.60;3.30;;;;;;;35.78;37.70;100373.73;105875;1253;60653;-79
2023/08/18 09:47:55;;;;;;;3.80;3.00;;;;;;;36.25;37.20;100369.50;106045;1253;63657;-79
2023/08/18 09:50:25;;;;;;;3.30;3.00;;;;;;;36.67;36.56;100362.55;106097;1257;60463;-82
2023/08/18 09:52:54;;;;;;;5.30;3.40;;;;;;;36.91;35.72;100356.92;106094;1251;62531;-77
2023/08/18 09:55:33;;;;;;;4.00;3.00;;;;;;;36.94;35.92;100355.64;106125;1253;60564;-81
2023/08/18 09:58:36;;;;;;;6.70;3.20;;;;;;;36.83;35.78;100358.90;106026;1257;60364;-80
2023/08/18 10:01:05;;;;;;;4.30;3.50;;;;;;;36.66;35.98;100362.72;106389;1251;63866;-80
2023/08/18 10:03:36;;;;;;;5.10;3.70;;;;;;;36.68;36.22;100366.85;106638;1256;70792;-78
2023/08/18 10:06:06;;;;;;;6.00;3.10;;;;;;;36.96;36.11;100363.77;106209;1253;63221;-81
2023/08/18 10:08:34;;;;;;;5.90;3.10;;;;;;;37.42;35.90;100362.68;106025;1255;60938;-82
2023/08/18 10:11:02;;;;;;;4.70;3.00;;;;;;;37.93;35.09;100362.39;105877;1253;60527;-83
2023/08/18 10:13:31;;;;;;;4.30;3.20;;;;;;;38.35;34.19;100365.01;105899;1257;64961;-79
2023/08/18 10:16:00;;;;;;;3.20;2.90;;;;;;;38.68;33.72;100363.19;106025;1257;61577;-83
2023/08/18 10:18:27;;;;;;;3.60;3.30;;;;;;;38.80;33.11;100359.02;105991;1254;63695;-81
2023/08/18 10:20:55;;;;;;;4.20;3.10;;;;;;;38.59;32.81;100360.89;105949;1253;60593;-82
2023/08/18 10:23:24;;;;;;;3.20;3.00;;;;;;;38.00;33.46;100364.58;106005;1258;60060;-80
2023/08/18 10:25:52;;;;;;;4.90;3.30;;;;;;;37.27;34.37;100367.27;106414;1254;63696;-82
2023/08/18 10:28:20;;;;;;;3.80;3.20;;;;;;;36.59;35.11;100362.24;107452;1257;60405;-83
2023/08/18 10:31:03;;;;;;;6.20;4.30;;;;;;;36.12;35.63;100365.59;108219;1253;62546;-81
2023/08/18 10:33:47;;;;;;;5.80;3.40;;;;;;;35.75;36.23;100363.40;108011;1256;60982;-83
2023/08/18 10:36:28;;;;;;;5.60;3.70;;;;;;;35.54;36.51;100364.27;106227;1253;60495;-79
2023/08/18 10:38:56;;;;;;;6.30;3.50;;;;;;;35.36;37.10;100362.08;105954;1256;63644;-84
2023/08/18 10:41:25;;;;;;;5.70;3.40;;;;;;;35.37;37.41;100358.85;106839;1253;60257;-84
2023/08/18 10:43:57;;;;;;;3.70;3.30;;;;;;;35.51;37.17;100357.17;106576;1253;63803;-81
2023/08/18 10:46:35;;;;;;;4.00;3.10;;;;;;;35.65;36.58;100356.91;105928;1254;60514;-81
2023/08/18 10:49:02;;;;;;;4.90;3.30;;;;;;;35.83;36.15;100358.08;105959;1253;60399;-80
2023/08/18 10:51:30;;;;;;;7.10;3.00;;;;;;;35.84;35.79;100352.85;105935;1253;65066;-77
2023/08/18 10:53:57;;;;;;;4.40;3.60;;;;;;;35.76;35.94;100356.69;105777;1253;60473;-81
2023/08/18 10:56:25;;;;;;;5.40;3.20;;;;;;;35.66;36.11;100356.56;106021;1253;62522;-80
2023/08/18 10:58:52;;;;;;;4.30;3.10;;;;;;;35.50;36.23;100350.34;105912;1260;60513;-81
2023/08/18 11:01:22;;;;;;;3.90;3.50;;;;;;;35.28;36.40;100353.34;106103;1253;60441;-80
2023/08/18 11:03:50;;;;;;;6.00;5.50;;;;;;;35.08;36.38;100355.98;106178;1253;63633;-81
2023/08/18 11:06:19;;;;;;;5.80;3.10;;;;;;;35.13;36.63;100355.85;105950;1255;61463;-81
2023/08/18 11:08:46;;;;;;;5.40;3.50;;;;;;;35.40;36.83;100350.90;106068;1256;62540;-78
2023/08/18 11:11:15;;;;;;;3.30;3.00;;;;;;;35.84;36.39;100343.42;106262;1257;60445;-80
2023/08/18 11:13:43;;;;;;;6.70;3.20;;;;;;;36.15;35.64;100342.43;106555;1253;60501;-81
2023/08/18 11:16:10;;;;;;;3.60;3.30;;;;;;;36.33;35.42;100344.41;106668;1256;64973;-79
2023/08/18 11:18:41;;;;;;;3.60;3.30;;;;;;;36.29;35.22;100342.76;106510;1253;61480;-81
2023/08/18 11:21:08;;;;;;;5.20;3.10;;;;;;;36.28;35.34;100339.05;107315;1254;62484;-80
2023/08/18 11:23:36;;;;;;;3.70;3.10;;;;;;;36.55;35.69;100335.84;106294;1256;60540;-80